Time;durP1;ratioP1;P1;durP2;ratioP2;P2;SDS_P1;SDS_P2;PMS_P1;PMS_P2;Temp;Humidity;BMP_temperature;BMP_pressure;BME280_temperature;BME280_humidity;BME280_pressure;Samples;Min_cycle;Max_cycle;Signal;HPM_P1;HPM_P2
2023/09/13 00:01:49;;;;;;;3.40;3.10;;;20.50;99.90;;;;;;5045505;28;20651;-68
2023/09/13 00:04:14;;;;;;;4.90;3.50;;;20.50;99.90;;;;;;5045647;28;20044;-67
2023/09/13 00:06:40;;;;;;;5.00;3.08;;;20.50;99.90;;;;;;5047499;28;20036;-68
2023/09/13 00:09:06;;;;;;;4.35;3.35;;;20.50;99.90;;;;;;5049774;28;20075;-68
2023/09/13 00:11:32;;;;;;;3.72;3.28;;;20.50;99.90;;;;;;5045479;28;20112;-67
2023/09/13 00:13:58;;;;;;;6.93;3.67;;;20.50;99.90;;;;;;5045220;28;20090;-68
2023/09/13 00:16:24;;;;;;;4.55;3.00;;;20.50;99.90;;;;;;5045542;28;20041;-68
2023/09/13 00:18:51;;;;;;;5.65;3.75;;;20.50;99.90;;;;;;5045453;28;20021;-68
2023/09/13 00:21:17;;;;;;;5.90;3.70;;;20.50;99.90;;;;;;5045671;28;20482;-67
2023/09/13 00:23:44;;;;;;;4.25;3.63;;;20.50;99.90;;;;;;5056097;28;20408;-68
2023/09/13 00:26:09;;;;;;;7.60;3.72;;;20.50;99.90;;;;;;5042394;28;20051;-68
2023/09/13 00:28:35;;;;;;;4.78;3.75;;;20.50;99.90;;;;;;5045374;28;20036;-68
2023/09/13 00:31:01;;;;;;;5.03;3.70;;;20.50;99.90;;;;;;5035417;28;20325;-68
2023/09/13 00:33:29;;;;;;;4.63;3.65;;;20.50;99.90;;;;;;5045050;28;20037;-67
2023/09/13 00:35:58;;;;;;;4.63;3.50;;;20.60;99.90;;;;;;5015670;28;20128;-68
2023/09/13 00:38:24;;;;;;;3.83;3.40;;;20.60;99.90;;;;;;5043932;28;20037;-68
2023/09/13 00:40:51;;;;;;;4.38;3.58;;;20.60;99.90;;;;;;5043790;28;20087;-68
2023/09/13 00:43:18;;;;;;;4.30;3.20;;;20.70;99.90;;;;;;5044782;28;20040;-68
2023/09/13 00:45:45;;;;;;;5.85;3.80;;;20.70;99.90;;;;;;5028719;28;20025;-68
2023/09/13 00:48:11;;;;;;;4.80;3.55;;;20.70;99.90;;;;;;5045247;28;20033;-68
2023/09/13 00:50:37;;;;;;;4.05;3.25;;;20.70;99.90;;;;;;5048696;28;20033;-68
2023/09/13 00:53:04;;;;;;;4.78;3.75;;;20.70;99.90;;;;;;5035213;28;20572;-68
2023/09/13 00:55:31;;;;;;;3.67;3.38;;;20.80;99.90;;;;;;5036034;28;20040;-68
2023/09/13 00:57:57;;;;;;;5.32;3.85;;;20.80;99.90;;;;;;5044929;28;20029;-68
2023/09/13 01:00:26;;;;;;;3.92;3.47;;;20.80;99.90;;;;;;5039878;28;20033;-68
2023/09/13 01:02:53;;;;;;;7.35;3.97;;;20.80;99.90;;;;;;5051729;28;20431;-67
2023/09/13 01:05:19;;;;;;;4.55;3.40;;;20.80;99.90;;;;;;5045308;28;20072;-68
2023/09/13 01:07:47;;;;;;;7.97;3.78;;;20.80;99.90;;;;;;5042197;28;20618;-68
2023/09/13 01:10:13;;;;;;;5.13;4.07;;;20.90;99.90;;;;;;5038052;28;20040;-68
2023/09/13 01:12:39;;;;;;;3.97;3.58;;;20.80;99.90;;;;;;5044714;28;20567;-68
2023/09/13 01:15:06;;;;;;;5.78;4.15;;;20.90;99.90;;;;;;5050921;28;20173;-68
2023/09/13 01:17:54;;;;;;;10.93;5.72;;;20.80;99.90;;;;;;5060293;28;20040;-68
2023/09/13 01:20:48;;;;;;;6.47;5.22;;;20.80;99.90;;;;;;5043786;28;20013;-68
2023/09/13 01:23:27;;;;;;;6.38;4.72;;;20.80;99.90;;;;;;5045684;28;20036;-68
2023/09/13 01:26:11;;;;;;;6.75;4.55;;;20.80;99.90;;;;;;5055294;28;20037;-68
2023/09/13 01:28:44;;;;;;;5.53;4.82;;;20.80;99.90;;;;;;5048297;28;20035;-68
2023/09/13 01:31:11;;;;;;;7.60;5.55;;;20.80;99.90;;;;;;5038450;28;20028;-68
2023/09/13 01:33:37;;;;;;;8.02;6.38;;;20.80;99.90;;;;;;5045905;28;20112;-68
2023/09/13 01:36:04;;;;;;;16.08;6.80;;;20.60;99.90;;;;;;5043732;28;20087;-68
2023/09/13 01:38:30;;;;;;;16.63;7.53;;;20.50;99.90;;;;;;5048343;28;20025;-68
2023/09/13 01:41:27;;;;;;;10.45;4.28;;;20.40;99.90;;;;;;5046599;28;20404;-68
2023/09/13 01:43:55;;;;;;;8.63;3.85;;;20.20;99.90;;;;;;5040905;28;20024;-68
2023/09/13 01:46:32;;;;;;;12.77;4.50;;;20.10;99.90;;;;;;5057895;28;20032;-68
2023/09/13 01:48:59;;;;;;;6.97;3.38;;;20.00;99.90;;;;;;5047931;28;20043;-68
2023/09/13 01:51:27;;;;;;;10.10;3.92;;;20.00;99.90;;;;;;5048349;28;20465;-68
2023/09/13 01:53:55;;;;;;;8.57;3.13;;;20.00;99.90;;;;;;5038072;28;20036;-68
2023/09/13 01:56:22;;;;;;;6.53;2.72;;;20.00;99.90;;;;;;5036608;28;20705;-68
2023/09/13 01:58:48;;;;;;;5.53;2.50;;;20.10;99.90;;;;;;5044944;28;20040;-68
2023/09/13 02:01:15;;;;;;;6.38;2.63;;;20.10;99.90;;;;;;5038039;28;20025;-68
2023/09/13 02:03:42;;;;;;;5.20;2.42;;;20.10;99.90;;;;;;5048486;28;20027;-68
2023/09/13 02:06:08;;;;;;;3.35;2.05;;;20.10;99.90;;;;;;5052893;28;20048;-68
2023/09/13 02:08:34;;;;;;;3.65;2.72;;;20.10;99.90;;;;;;5045179;28;20036;-68
2023/09/13 02:11:00;;;;;;;6.10;2.47;;;20.10;99.90;;;;;;5057808;28;20777;-68
2023/09/13 02:13:25;;;;;;;3.53;2.00;;;20.10;99.90;;;;;;5041504;28;20047;-69
2023/09/13 02:15:51;;;;;;;2.88;2.00;;;20.10;99.90;;;;;;5047254;28;20045;-68
2023/09/13 02:18:17;;;;;;;4.15;2.00;;;20.10;99.90;;;;;;5045920;28;20037;-68
2023/09/13 02:20:44;;;;;;;5.28;2.10;;;20.20;99.90;;;;;;5037709;28;20029;-68
2023/09/13 02:23:10;;;;;;;4.70;2.13;;;20.20;99.90;;;;;;5041764;28;20033;-68
2023/09/13 02:25:37;;;;;;;9.75;2.83;;;20.10;99.90;;;;;;5034038;28;20040;-68
2023/09/13 02:28:03;;;;;;;8.32;2.20;;;20.10;99.90;;;;;;5042177;28;20040;-68
2023/09/13 02:30:34;;;;;;;5.90;2.25;;;20.10;99.90;;;;;;5045724;28;20036;-67
2023/09/13 02:33:00;;;;;;;8.98;2.40;;;20.00;99.90;;;;;;5037857;28;20041;-68
2023/09/13 02:35:26;;;;;;;6.30;2.55;;;20.00;99.90;;;;;;5050890;28;20041;-68
2023/09/13 02:37:51;;;;;;;6.40;2.15;;;20.00;99.90;;;;;;5045147;28;20162;-67
2023/09/13 02:40:17;;;;;;;3.63;2.15;;;20.00;99.90;;;;;;5059384;28;20025;-68
2023/09/13 02:42:43;;;;;;;4.18;2.20;;;19.90;99.90;;;;;;5044776;28;20090;-67
2023/09/13 02:45:09;;;;;;;3.78;1.90;;;19.90;99.90;;;;;;5042302;28;20040;-68
2023/09/13 02:47:35;;;;;;;4.75;2.25;;;19.90;99.90;;;;;;5040716;28;20028;-67
2023/09/13 02:50:01;;;;;;;3.58;2.08;;;19.90;99.90;;;;;;5057190;28;20029;-67
2023/09/13 02:52:32;;;;;;;4.65;2.15;;;20.00;99.90;;;;;;5056102;28;20059;-67
2023/09/13 02:54:59;;;;;;;3.85;2.00;;;19.90;99.90;;;;;;5050288;28;20451;-67
2023/09/13 02:57:25;;;;;;;5.82;1.98;;;19.90;99.90;;;;;;5039507;28;20036;-69
2023/09/13 02:59:51;;;;;;;3.72;1.80;;;19.90;99.90;;;;;;5041741;28;20029;-67
2023/09/13 03:02:18;;;;;;;3.88;1.95;;;19.80;99.90;;;;;;5045984;28;20044;-67
2023/09/13 03:04:44;;;;;;;4.07;1.60;;;19.90;99.90;;;;;;5036802;28;20029;-67
2023/09/13 03:07:10;;;;;;;5.00;2.40;;;19.90;99.90;;;;;;5049890;28;20132;-67
2023/09/13 03:09:36;;;;;;;6.38;2.42;;;19.90;99.90;;;;;;5043908;28;20036;-67
2023/09/13 03:12:05;;;;;;;5.63;1.98;;;19.90;99.90;;;;;;5033611;28;20043;-67
2023/09/13 03:14:32;;;;;;;3.67;2.03;;;19.80;99.90;;;;;;5044690;28;20120;-67
2023/09/13 03:16:58;;;;;;;3.95;2.25;;;19.90;99.90;;;;;;5036434;28;20757;-67
2023/09/13 03:19:24;;;;;;;5.88;2.25;;;19.90;99.90;;;;;;5053989;28;20020;-67
2023/09/13 03:21:50;;;;;;;3.20;1.63;;;19.90;99.90;;;;;;5044692;28;20132;-67
2023/09/13 03:24:16;;;;;;;2.47;1.60;;;19.90;99.90;;;;;;5036376;28;20044;-67
2023/09/13 03:26:42;;;;;;;4.97;2.10;;;19.80;99.90;;;;;;5039758;28;20024;-67
2023/09/13 03:29:09;;;;;;;5.68;1.80;;;19.80;99.90;;;;;;5037553;28;20036;-67
2023/09/13 03:31:38;;;;;;;5.05;2.08;;;19.90;99.90;;;;;;5033343;28;20037;-67
2023/09/13 03:34:07;;;;;;;2.88;1.90;;;19.80;99.90;;;;;;5035928;28;20135;-67
2023/09/13 03:36:34;;;;;;;3.97;1.95;;;19.80;99.90;;;;;;5040963;28;20040;-67
2023/09/13 03:39:01;;;;;;;2.90;1.60;;;19.80;99.90;;;;;;5036134;28;20386;-67
2023/09/13 03:41:30;;;;;;;3.78;1.50;;;19.80;99.90;;;;;;5044187;28;20033;-67
2023/09/13 03:43:56;;;;;;;2.20;1.40;;;19.80;99.90;;;;;;5039338;28;20031;-67
2023/09/13 03:46:22;;;;;;;2.92;1.70;;;19.80;99.90;;;;;;5043941;28;20032;-67
2023/09/13 03:48:52;;;;;;;2.13;1.65;;;19.80;99.90;;;;;;5042251;28;20541;-67
2023/09/13 03:51:18;;;;;;;2.60;1.70;;;19.80;99.90;;;;;;5047993;28;20116;-67
2023/09/13 03:53:45;;;;;;;3.85;1.85;;;19.80;99.90;;;;;;5049835;28;20029;-67
2023/09/13 03:56:12;;;;;;;4.00;1.80;;;19.80;99.90;;;;;;5035859;28;20039;-67
2023/09/13 03:58:39;;;;;;;2.38;1.77;;;19.80;99.90;;;;;;5044084;28;20033;-67
2023/09/13 04:01:06;;;;;;;2.35;1.83;;;19.70;99.90;;;;;;5038762;28;20551;-66
2023/09/13 04:03:32;;;;;;;4.75;1.95;;;19.80;99.90;;;;;;5046689;28;20053;-67
2023/09/13 04:05:59;;;;;;;3.85;2.58;;;19.80;99.90;;;;;;5029884;28;20037;-67
2023/09/13 04:08:26;;;;;;;4.38;2.30;;;19.80;99.90;;;;;;5038722;28;20051;-67
2023/09/13 04:10:52;;;;;;;3.55;1.60;;;19.80;99.90;;;;;;5051675;28;20256;-67
2023/09/13 04:13:18;;;;;;;2.17;1.60;;;19.70;99.90;;;;;;5048395;28;20053;-67
2023/09/13 04:15:45;;;;;;;3.70;2.30;;;19.70;99.90;;;;;;5053622;28;20548;-67
2023/09/13 04:18:11;;;;;;;3.83;2.40;;;19.70;99.90;;;;;;5039454;28;20052;-67
2023/09/13 04:20:37;;;;;;;3.22;1.65;;;19.70;99.90;;;;;;5055686;28;20393;-66
2023/09/13 04:23:03;;;;;;;5.50;2.08;;;19.70;99.90;;;;;;5046637;28;20028;-66
2023/09/13 04:25:28;;;;;;;3.33;2.17;;;19.60;99.90;;;;;;5036408;28;20102;-67
2023/09/13 04:27:55;;;;;;;2.88;1.88;;;19.60;99.90;;;;;;5043671;28;20047;-66
2023/09/13 04:30:21;;;;;;;2.83;2.00;;;19.50;99.90;;;;;;5020949;28;20036;-67
2023/09/13 04:32:47;;;;;;;3.88;1.90;;;19.50;99.90;;;;;;5044265;28;20091;-67
2023/09/13 04:35:13;;;;;;;3.05;1.98;;;19.40;99.90;;;;;;5042043;28;20033;-66
2023/09/13 04:37:42;;;;;;;4.47;2.70;;;19.40;99.90;;;;;;5032389;28;20028;-66
2023/09/13 04:40:09;;;;;;;5.18;2.85;;;19.40;99.90;;;;;;5044775;28;20032;-66
2023/09/13 04:42:50;;;;;;;3.90;2.30;;;19.50;99.90;;;;;;5052119;28;20438;-66
2023/09/13 04:45:16;;;;;;;5.82;2.33;;;19.50;99.90;;;;;;5047203;28;20041;-66
2023/09/13 04:47:42;;;;;;;4.57;2.47;;;19.50;99.90;;;;;;5042474;28;20025;-66
2023/09/13 04:50:09;;;;;;;4.68;2.63;;;19.50;99.90;;;;;;5035331;28;20101;-66
2023/09/13 04:52:35;;;;;;;3.60;1.98;;;19.50;99.90;;;;;;5034252;28;20563;-66
2023/09/13 04:55:01;;;;;;;4.70;1.85;;;19.50;99.90;;;;;;5040017;28;20048;-66
2023/09/13 04:57:27;;;;;;;3.78;2.38;;;19.50;99.90;;;;;;5036391;28;20024;-67
2023/09/13 04:59:53;;;;;;;3.95;2.85;;;19.50;99.90;;;;;;5044712;28;20652;-67
2023/09/13 05:02:19;;;;;;;6.28;2.80;;;19.50;99.90;;;;;;5041443;28;20873;-67
2023/09/13 05:04:47;;;;;;;6.28;2.38;;;19.50;99.90;;;;;;5046189;28;20824;-66
2023/09/13 05:07:12;;;;;;;4.45;2.13;;;19.60;99.90;;;;;;5052205;28;20044;-67
2023/09/13 05:09:40;;;;;;;5.47;2.42;;;19.60;99.90;;;;;;5055460;28;20021;-66
2023/09/13 05:12:06;;;;;;;3.95;2.20;;;19.60;99.90;;;;;;5063859;28;20051;-66
2023/09/13 05:14:33;;;;;;;4.30;2.60;;;19.60;99.90;;;;;;5062525;28;20028;-66
2023/09/13 05:16:59;;;;;;;3.47;2.22;;;19.60;99.90;;;;;;5059113;28;20043;-67
2023/09/13 05:19:25;;;;;;;4.30;1.98;;;19.60;99.90;;;;;;5043410;28;20099;-67
2023/09/13 05:21:51;;;;;;;2.83;2.03;;;19.60;99.90;;;;;;5048871;28;20747;-66
2023/09/13 05:24:18;;;;;;;3.88;1.95;;;19.70;99.90;;;;;;5051419;28;20389;-66
2023/09/13 05:26:43;;;;;;;4.03;2.35;;;19.70;99.90;;;;;;5051191;28;20422;-66
2023/09/13 05:29:09;;;;;;;4.80;2.50;;;19.70;99.90;;;;;;5056854;28;20029;-67
2023/09/13 05:31:36;;;;;;;4.38;2.53;;;19.60;99.90;;;;;;5055608;28;20041;-66
2023/09/13 05:34:01;;;;;;;4.13;2.47;;;19.60;99.90;;;;;;5061968;28;20036;-66
2023/09/13 05:36:27;;;;;;;4.65;2.15;;;19.60;99.90;;;;;;5057834;28;20024;-67
2023/09/13 05:38:53;;;;;;;4.07;2.58;;;19.70;99.90;;;;;;5055310;28;20546;-66
2023/09/13 05:41:19;;;;;;;4.47;2.95;;;19.70;99.90;;;;;;5055712;28;20036;-67
2023/09/13 05:43:45;;;;;;;4.03;2.53;;;19.70;99.90;;;;;;5059660;28;20398;-66
2023/09/13 05:46:10;;;;;;;4.57;2.70;;;19.80;99.90;;;;;;5062616;28;20071;-67
2023/09/13 05:48:37;;;;;;;5.47;3.40;;;19.90;99.90;;;;;;5055970;28;20548;-66
2023/09/13 05:51:04;;;;;;;10.10;3.38;;;19.90;99.90;;;;;;5051743;28;20036;-66
2023/09/13 05:53:30;;;;;;;7.30;3.88;;;20.00;99.90;;;;;;5058648;28;20039;-66
2023/09/13 05:55:56;;;;;;;6.53;4.70;;;20.00;99.90;;;;;;5054836;28;20040;-66
2023/09/13 05:58:22;;;;;;;6.63;4.85;;;20.10;99.90;;;;;;5051365;28;20024;-67
2023/09/13 06:00:50;;;;;;;10.77;7.10;;;20.10;99.90;;;;;;5052610;28;20425;-67
2023/09/13 06:03:19;;;;;;;10.00;6.60;;;20.10;99.90;;;;;;5054836;28;20043;-66
2023/09/13 06:05:51;;;;;;;14.65;8.68;;;20.20;99.90;;;;;;5056472;28;20036;-66
2023/09/13 06:08:20;;;;;;;15.35;9.80;;;20.40;99.90;;;;;;5058528;28;20590;-66
2023/09/13 06:10:46;;;;;;;13.52;10.13;;;20.50;99.90;;;;;;5057650;28;20177;-67
2023/09/13 06:13:12;;;;;;;15.07;11.25;;;20.60;99.90;;;;;;5056911;28;20162;-66
2023/09/13 06:15:38;;;;;;;14.98;10.27;;;20.70;99.90;;;;;;5055000;28;20445;-67
2023/09/13 06:18:05;;;;;;;17.27;10.10;;;20.70;99.90;;;;;;5055283;28;20029;-66
2023/09/13 06:20:31;;;;;;;11.68;9.20;;;20.70;99.90;;;;;;5048380;28;20040;-66
2023/09/13 06:22:57;;;;;;;14.25;9.48;;;20.80;99.90;;;;;;5057521;28;20037;-67
2023/09/13 06:25:22;;;;;;;12.63;8.63;;;20.70;99.90;;;;;;5057259;28;20041;-67
2023/09/13 06:27:48;;;;;;;14.43;9.23;;;20.60;99.90;;;;;;5054544;28;20041;-66
2023/09/13 06:30:14;;;;;;;12.27;8.90;;;20.60;99.90;;;;;;5059661;28;20037;-66
2023/09/13 06:32:40;;;;;;;12.93;9.60;;;20.60;99.90;;;;;;5058474;28;20166;-66
2023/09/13 06:35:12;;;;;;;15.93;9.57;;;20.60;99.90;;;;;;5059115;28;20028;-66
2023/09/13 06:37:38;;;;;;;11.65;7.35;;;20.60;99.90;;;;;;5049497;28;20070;-67
2023/09/13 06:40:05;;;;;;;13.82;8.88;;;20.60;99.90;;;;;;5059057;28;20037;-67
2023/09/13 06:42:31;;;;;;;11.57;8.80;;;20.60;99.90;;;;;;5050142;28;20049;-66
2023/09/13 06:44:59;;;;;;;10.68;8.38;;;20.60;99.90;;;;;;5057107;28;20512;-67
2023/09/13 06:47:28;;;;;;;12.45;8.43;;;20.60;99.90;;;;;;5049984;28;20040;-67
2023/09/13 06:49:54;;;;;;;14.68;8.18;;;20.60;99.90;;;;;;5056288;28;20178;-67
2023/09/13 06:52:20;;;;;;;10.07;7.97;;;20.60;99.90;;;;;;5053869;28;20044;-67
2023/09/13 06:54:46;;;;;;;8.98;7.25;;;20.60;99.90;;;;;;5054986;28;20052;-67
2023/09/13 06:57:12;;;;;;;9.75;7.88;;;20.70;99.90;;;;;;5058637;28;20519;-66
2023/09/13 06:59:39;;;;;;;11.05;8.52;;;20.70;99.90;;;;;;5054114;28;20060;-67
2023/09/13 07:02:05;;;;;;;9.73;7.57;;;20.80;99.90;;;;;;5042026;28;20032;-67
2023/09/13 07:04:31;;;;;;;13.85;8.05;;;20.80;99.90;;;;;;5046328;28;20094;-67
2023/09/13 07:06:57;;;;;;;10.65;7.05;;;20.90;99.90;;;;;;5052066;28;20037;-66
2023/09/13 07:09:23;;;;;;;12.18;7.07;;;20.90;99.90;;;;;;5057076;28;20090;-67
2023/09/13 07:11:49;;;;;;;8.35;6.20;;;20.90;99.90;;;;;;5051141;28;20041;-67
2023/09/13 07:14:15;;;;;;;7.45;5.47;;;21.00;99.90;;;;;;5050440;28;20036;-66
2023/09/13 07:16:40;;;;;;;6.57;5.82;;;21.10;99.90;;;;;;5053430;28;20521;-67
2023/09/13 07:19:06;;;;;;;5.68;5.07;;;21.20;99.90;;;;;;5052800;28;20074;-67
2023/09/13 07:21:32;;;;;;;7.20;5.43;;;21.30;99.90;;;;;;5046454;28;20033;-67
2023/09/13 07:23:58;;;;;;;5.82;5.22;;;21.30;99.90;;;;;;5049021;28;20059;-66
2023/09/13 07:26:24;;;;;;;11.77;5.53;;;21.30;99.90;;;;;;5048169;28;20496;-67
2023/09/13 07:28:50;;;;;;;5.20;4.70;;;21.30;99.90;;;;;;5048895;28;20029;-66
2023/09/13 07:31:16;;;;;;;7.05;5.47;;;21.30;99.90;;;;;;5050787;28;20515;-67
2023/09/13 07:33:42;;;;;;;6.28;5.28;;;21.30;99.90;;;;;;5055284;28;20043;-67
2023/09/13 07:36:08;;;;;;;6.40;5.00;;;21.30;99.90;;;;;;5059595;28;20998;-67
2023/09/13 07:38:34;;;;;;;7.80;5.07;;;21.30;99.90;;;;;;5048468;28;20033;-67
2023/09/13 07:41:00;;;;;;;11.07;6.28;;;21.30;99.90;;;;;;5058495;28;20602;-67
2023/09/13 07:43:27;;;;;;;8.55;5.25;;;21.40;99.90;;;;;;5057321;28;20485;-67
2023/09/13 07:45:53;;;;;;;7.55;5.05;;;21.50;99.90;;;;;;5045747;28;20039;-67
2023/09/13 07:48:19;;;;;;;7.78;5.45;;;21.40;99.90;;;;;;5060256;28;20037;-67
2023/09/13 07:50:45;;;;;;;8.13;5.57;;;21.50;99.90;;;;;;5045881;28;20055;-67
2023/09/13 07:53:12;;;;;;;12.73;5.40;;;21.60;99.90;;;;;;5047473;28;20048;-67
2023/09/13 07:55:39;;;;;;;6.75;5.38;;;21.60;99.90;;;;;;5057500;28;20472;-67
2023/09/13 07:58:05;;;;;;;8.52;4.72;;;21.60;99.90;;;;;;5060062;28;20059;-67
2023/09/13 08:00:32;;;;;;;5.45;4.68;;;21.50;99.90;;;;;;5054766;28;20629;-67
2023/09/13 08:03:02;;;;;;;6.05;4.82;;;21.60;99.90;;;;;;5045671;28;20119;-67
2023/09/13 08:05:28;;;;;;;6.03;4.22;;;21.50;99.90;;;;;;5050780;28;20048;-67
2023/09/13 08:07:54;;;;;;;5.05;3.30;;;21.40;99.90;;;;;;5045284;28;20037;-66
2023/09/13 08:10:24;;;;;;;4.28;3.53;;;21.30;99.90;;;;;;5046135;28;20085;-67
2023/09/13 08:12:50;;;;;;;7.25;3.63;;;21.20;99.90;;;;;;5037191;28;20033;-67
2023/09/13 08:15:16;;;;;;;5.13;3.50;;;21.10;99.90;;;;;;5047898;28;20552;-67
2023/09/13 08:17:42;;;;;;;4.00;3.40;;;21.10;99.90;;;;;;5049916;28;20036;-67
2023/09/13 08:20:08;;;;;;;3.83;2.50;;;21.10;99.90;;;;;;5050149;28;20061;-67
2023/09/13 08:22:37;;;;;;;5.65;2.70;;;21.10;99.90;;;;;;5044348;28;20078;-67
2023/09/13 08:25:04;;;;;;;9.77;2.55;;;21.10;99.90;;;;;;5044535;28;20037;-66
2023/09/13 08:27:31;;;;;;;2.88;2.58;;;21.10;99.90;;;;;;5046755;28;20043;-67
2023/09/13 08:29:57;;;;;;;4.20;2.55;;;21.20;99.90;;;;;;5044943;28;20061;-67
2023/09/13 08:32:23;;;;;;;4.72;2.80;;;21.40;99.90;;;;;;5044547;28;20056;-66
2023/09/13 08:34:49;;;;;;;4.65;2.67;;;21.50;99.90;;;;;;5060139;28;20645;-67
2023/09/13 08:37:15;;;;;;;3.72;2.78;;;21.60;99.90;;;;;;5042827;28;20032;-67
2023/09/13 08:39:41;;;;;;;3.03;2.25;;;21.80;99.90;;;;;;5044744;28;20032;-67
2023/09/13 08:42:07;;;;;;;4.38;3.08;;;22.00;99.90;;;;;;5045052;28;20028;-67
2023/09/13 08:44:35;;;;;;;3.63;2.83;;;22.10;99.90;;;;;;5052236;28;20082;-67
2023/09/13 08:47:02;;;;;;;3.08;2.08;;;22.10;99.90;;;;;;5045612;28;20025;-67
2023/09/13 08:49:29;;;;;;;3.58;2.40;;;22.20;99.90;;;;;;5036097;28;20041;-67
2023/09/13 08:51:56;;;;;;;2.88;2.20;;;22.20;99.90;;;;;;5051337;28;20044;-67
2023/09/13 08:54:22;;;;;;;3.95;2.75;;;22.20;99.90;;;;;;5052672;28;20061;-67
2023/09/13 08:56:48;;;;;;;4.25;2.03;;;22.20;99.90;;;;;;5035106;28;20409;-67
2023/09/13 08:59:17;;;;;;;3.85;2.47;;;22.10;99.90;;;;;;5042105;28;20041;-67
2023/09/13 09:01:48;;;;;;;4.57;2.30;;;22.00;99.90;;;;;;5044382;28;20036;-67
2023/09/13 09:04:16;;;;;;;4.65;2.33;;;22.00;99.90;;;;;;5046960;28;20036;-67
2023/09/13 09:06:43;;;;;;;4.13;2.67;;;21.90;99.90;;;;;;5045475;28;20094;-67
2023/09/13 09:09:10;;;;;;;2.83;2.13;;;21.80;99.90;;;;;;5051797;28;20137;-67
2023/09/13 09:11:38;;;;;;;4.85;2.60;;;21.80;99.90;;;;;;5049174;28;20036;-67
2023/09/13 09:14:04;;;;;;;3.05;2.63;;;21.90;99.90;;;;;;5043150;28;20610;-67
2023/09/13 09:16:31;;;;;;;3.85;2.40;;;21.90;99.90;;;;;;5034703;28;20037;-67
2023/09/13 09:19:00;;;;;;;2.63;2.30;;;22.00;99.90;;;;;;5051358;28;20538;-67
2023/09/13 09:21:26;;;;;;;4.45;2.67;;;22.00;99.90;;;;;;5044016;28;20540;-67
2023/09/13 09:23:53;;;;;;;4.07;2.40;;;21.90;99.90;;;;;;5053082;28;20131;-67
2023/09/13 09:26:20;;;;;;;2.53;2.33;;;22.00;99.90;;;;;;5051969;28;20072;-67
2023/09/13 09:28:46;;;;;;;3.60;2.70;;;22.00;99.90;;;;;;5044690;28;20450;-67
2023/09/13 09:31:12;;;;;;;5.30;2.92;;;22.10;99.90;;;;;;5048665;28;20040;-67
2023/09/13 09:33:39;;;;;;;2.70;2.45;;;22.20;99.90;;;;;;5045704;28;20485;-67
2023/09/13 09:36:08;;;;;;;4.10;2.90;;;22.20;99.90;;;;;;5048584;28;20032;-67
2023/09/13 09:38:35;;;;;;;2.80;2.30;;;22.30;99.90;;;;;;5045364;28;20036;-67
2023/09/13 09:41:02;;;;;;;3.15;2.42;;;22.30;99.90;;;;;;5057357;28;20032;-67
2023/09/13 09:43:29;;;;;;;3.00;2.67;;;22.40;99.90;;;;;;5056569;28;20098;-67
2023/09/13 09:45:55;;;;;;;3.05;2.60;;;22.30;99.90;;;;;;5055229;28;20032;-67
2023/09/13 09:48:21;;;;;;;3.50;2.33;;;22.40;99.90;;;;;;5051031;28;20538;-67
2023/09/13 09:50:52;;;;;;;3.85;2.10;;;22.50;99.90;;;;;;5051242;28;20040;-67
2023/09/13 09:53:20;;;;;;;4.20;2.00;;;22.60;99.90;;;;;;5053480;28;20036;-67
2023/09/13 09:55:47;;;;;;;2.30;2.10;;;22.80;99.90;;;;;;5055061;28;20849;-67
2023/09/13 09:58:13;;;;;;;3.53;2.10;;;22.90;99.90;;;;;;5053986;28;20693;-67
2023/09/13 10:00:45;;;;;;;2.08;1.88;;;23.00;99.90;;;;;;5047585;28;20033;-66
2023/09/13 10:03:17;;;;;;;2.38;1.83;;;23.10;99.90;;;;;;5047298;28;20037;-67
2023/09/13 10:06:07;;;;;;;2.00;1.90;;;23.10;99.90;;;;;;5030137;28;20103;-68
2023/09/13 10:08:43;;;;;;;2.58;1.98;;;23.00;99.90;;;;;;5047680;28;20126;-67
2023/09/13 10:11:11;;;;;;;3.97;2.08;;;23.00;99.90;;;;;;5060841;28;20041;-68
2023/09/13 10:13:38;;;;;;;2.10;1.90;;;22.90;99.90;;;;;;5056078;28;20036;-67
2023/09/13 10:16:09;;;;;;;1.75;1.65;;;22.90;99.90;;;;;;5053482;28;20043;-67
2023/09/13 10:18:50;;;;;;;1.73;1.63;;;22.80;99.90;;;;;;5048275;28;20048;-67
2023/09/13 10:21:30;;;;;;;2.63;1.67;;;22.60;99.90;;;;;;5057857;28;20032;-67
2023/09/13 10:24:06;;;;;;;1.40;1.30;;;22.50;99.90;;;;;;5049798;28;20136;-67
2023/09/13 10:26:33;;;;;;;3.40;1.38;;;22.50;99.90;;;;;;5062923;28;20040;-67
2023/09/13 10:29:17;;;;;;;1.98;1.55;;;22.50;99.90;;;;;;5056073;28;20578;-66
2023/09/13 10:31:48;;;;;;;1.20;1.10;;;22.50;99.90;;;;;;5057618;28;20140;-68
2023/09/13 10:34:23;;;;;;;2.72;1.50;;;22.50;99.90;;;;;;5056985;28;20559;-67
2023/09/13 10:36:55;;;;;;;2.22;1.58;;;22.50;99.90;;;;;;5050405;28;20083;-67
2023/09/13 10:39:30;;;;;;;3.75;1.65;;;22.40;99.90;;;;;;5047755;28;20494;-67
2023/09/13 10:42:06;;;;;;;1.70;1.60;;;22.40;99.90;;;;;;5050828;28;20079;-67
2023/09/13 10:44:34;;;;;;;2.47;1.90;;;22.40;99.90;;;;;;5054742;28;20634;-67
2023/09/13 10:47:01;;;;;;;2.30;2.00;;;22.30;99.90;;;;;;5046997;28;20045;-67
2023/09/13 10:49:27;;;;;;;2.03;1.83;;;22.30;99.90;;;;;;5054768;28;20505;-67
2023/09/13 10:51:56;;;;;;;4.68;2.13;;;22.30;99.90;;;;;;5047170;28;20048;-67
2023/09/13 10:54:24;;;;;;;2.60;2.20;;;22.20;99.90;;;;;;5052400;28;20628;-67
2023/09/13 10:56:50;;;;;;;2.53;2.28;;;22.20;99.90;;;;;;5045664;28;20041;-67
2023/09/13 10:59:18;;;;;;;2.22;2.03;;;22.20;99.90;;;;;;5046873;28;20033;-67
2023/09/13 11:01:46;;;;;;;3.05;2.47;;;22.10;99.90;;;;;;5038431;28;20025;-67
2023/09/13 11:04:23;;;;;;;2.72;2.35;;;22.10;99.90;;;;;;5041776;28;20067;-67
2023/09/13 11:06:51;;;;;;;2.40;2.20;;;22.10;99.90;;;;;;5043633;28;20044;-67
2023/09/13 11:09:23;;;;;;;3.88;2.63;;;22.10;99.90;;;;;;5055581;28;20148;-67
2023/09/13 11:11:53;;;;;;;2.63;2.40;;;22.10;99.90;;;;;;5050603;28;20068;-67
2023/09/13 11:14:28;;;;;;;2.70;2.50;;;22.20;99.90;;;;;;5049165;28;20036;-67
2023/09/13 11:16:55;;;;;;;3.17;2.40;;;22.20;99.90;;;;;;5047277;28;20066;-67
2023/09/13 11:19:27;;;;;;;2.45;2.25;;;22.30;99.90;;;;;;5052796;28;20044;-67
2023/09/13 11:22:00;;;;;;;3.35;2.67;;;22.40;99.90;;;;;;5044944;28;20030;-67
2023/09/13 11:24:46;;;;;;;3.30;2.70;;;22.50;99.90;;;;;;5051210;28;20036;-67
2023/09/13 11:27:16;;;;;;;6.30;2.50;;;22.70;99.90;;;;;;5045906;28;20095;-67
2023/09/13 11:29:50;;;;;;;2.40;2.17;;;22.80;99.90;;;;;;5041775;28;20603;-67
2023/09/13 11:32:20;;;;;;;2.47;2.10;;;22.90;99.90;;;;;;5054533;28;20064;-67
2023/09/13 11:34:54;;;;;;;3.70;2.30;;;23.00;99.90;;;;;;5046921;28;20043;-67
2023/09/13 11:37:22;;;;;;;2.17;1.98;;;23.10;99.90;;;;;;5052920;28;20079;-68
2023/09/13 11:40:11;;;;;;;3.92;2.08;;;23.10;99.90;;;;;;5050347;28;20025;-67
2023/09/13 11:42:38;;;;;;;3.47;2.50;;;23.20;99.90;;;;;;5045720;28;20479;-67
2023/09/13 11:45:09;;;;;;;2.25;2.05;;;23.30;99.90;;;;;;5058328;28;20473;-67
2023/09/13 11:47:36;;;;;;;4.15;2.15;;;23.40;99.90;;;;;;5046052;28;20128;-67
2023/09/13 11:50:06;;;;;;;2.45;2.20;;;23.40;99.90;;;;;;5054644;28;20043;-67
2023/09/13 11:53:09;;;;;;;2.83;2.50;;;23.50;99.90;;;;;;5051165;28;20025;-68
2023/09/13 11:55:55;;;;;;;2.28;2.10;;;23.40;99.90;;;;;;5047182;28;20090;-67
2023/09/13 11:58:34;;;;;;;2.35;2.15;;;23.30;99.90;;;;;;5049083;28;20090;-67
2023/09/13 12:01:03;;;;;;;2.53;2.10;;;23.10;99.90;;;;;;5050059;28;20437;-67
2023/09/13 12:03:39;;;;;;;3.85;2.05;;;23.00;99.90;;;;;;5051159;28;20099;-67
2023/09/13 12:06:06;;;;;;;2.53;2.30;;;22.90;99.90;;;;;;5050515;28;20736;-67
2023/09/13 12:08:36;;;;;;;2.50;2.30;;;23.00;99.90;;;;;;5051003;28;20081;-67
2023/09/13 12:11:05;;;;;;;3.25;2.00;;;23.10;99.90;;;;;;5042992;28;20040;-67
2023/09/13 12:13:48;;;;;;;2.42;2.08;;;23.10;99.90;;;;;;5050966;28;20425;-67
2023/09/13 12:16:15;;;;;;;3.60;2.45;;;23.10;99.90;;;;;;5047096;28;20153;-67
2023/09/13 12:18:42;;;;;;;2.60;2.30;;;23.10;99.90;;;;;;5056639;28;20035;-67
2023/09/13 12:21:10;;;;;;;2.40;2.20;;;23.10;99.90;;;;;;5054596;28;20148;-67
2023/09/13 12:23:38;;;;;;;3.00;2.22;;;23.20;99.90;;;;;;5053475;28;20038;-67
2023/09/13 12:26:07;;;;;;;2.58;2.38;;;23.30;99.90;;;;;;5050214;28;20033;-67
2023/09/13 12:28:36;;;;;;;6.43;2.40;;;23.20;99.90;;;;;;5048803;28;20052;-67
2023/09/13 12:31:10;;;;;;;3.20;2.20;;;23.20;99.90;;;;;;5049565;28;20043;-67
2023/09/13 12:33:39;;;;;;;2.72;2.53;;;23.30;99.90;;;;;;5049698;28;20036;-67
2023/09/13 12:36:06;;;;;;;2.83;2.40;;;23.40;99.90;;;;;;5057294;28;20522;-67
2023/09/13 12:38:41;;;;;;;3.08;2.40;;;23.50;99.90;;;;;;5044530;28;20082;-67
2023/09/13 12:41:07;;;;;;;2.17;2.08;;;23.60;99.90;;;;;;5046900;28;20056;-67
2023/09/13 12:43:35;;;;;;;4.07;2.25;;;23.60;99.90;;;;;;5048518;28;20063;-67
2023/09/13 12:46:05;;;;;;;2.30;2.10;;;23.60;99.90;;;;;;5055680;28;20040;-67
2023/09/13 12:48:31;;;;;;;2.80;2.25;;;23.70;99.90;;;;;;5049946;28;20524;-67
2023/09/13 12:50:59;;;;;;;2.97;2.17;;;23.60;99.90;;;;;;5055085;28;20036;-67